Time;durP1;ratioP1;P1;durP2;ratioP2;P2;SDS_P1;SDS_P2;PMS_P1;PMS_P2;Temp;Humidity;BMP_temperature;BMP_pressure;BME280_temperature;BME280_humidity;BME280_pressure;Samples;Min_cycle;Max_cycle;Signal;HPM_P1;HPM_P2
2023/11/17 00:01:22;;;;;;;0.20;0.20;;;;;;;2.34;73.62;100569.22;15592027;28;20433;-50
2023/11/17 00:08:55;;;;;;;0.00;0.00;;;;;;;1.97;72.92;100558.00;15609049;28;20045;-53
2023/11/17 00:16:31;;;;;;;0.00;0.00;;;;;;;2.27;73.40;100576.97;15604697;28;20111;-49
2023/11/17 00:24:06;;;;;;;0.00;0.00;;;;;;;2.26;73.27;100573.50;15605286;28;20096;-50
2023/11/17 00:31:40;;;;;;;0.00;0.00;;;;;;;2.02;73.71;100581.34;15604916;28;20042;-49
2023/11/17 00:39:15;;;;;;;0.00;0.00;;;;;;;2.34;74.00;100588.59;15620352;28;20037;-51
2023/11/17 00:46:50;;;;;;;0.00;0.00;;;;;;;2.22;75.24;100600.44;15622510;28;20041;-51
2023/11/17 00:54:27;;;;;;;0.00;0.00;;;;;;;2.10;76.24;100591.97;15621093;28;20053;-53
2023/11/17 01:02:01;;;;;;;0.00;0.00;;;;;;;2.23;77.57;100615.34;15619902;28;20049;-55
2023/11/17 01:09:35;;;;;;;0.00;0.00;;;;;;;1.95;79.35;100628.78;15599300;28;20510;-51
2023/11/17 01:17:12;;;;;;;0.00;0.00;;;;;;;2.11;80.62;100620.09;15597065;28;20136;-55
2023/11/17 01:24:45;;;;;;;0.10;0.10;;;;;;;2.51;79.16;100618.59;15593136;28;20073;-52
2023/11/17 01:32:20;;;;;;;0.00;0.00;;;;;;;2.84;78.34;100630.09;15594618;28;20057;-52
2023/11/17 01:39:53;;;;;;;0.00;0.00;;;;;;;2.72;77.86;100613.69;15600647;28;20093;-50
2023/11/17 01:47:28;;;;;;;;;;;;;;;2.61;77.36;100626.41;15600472;28;20112;-54
2023/11/17 01:55:05;;;;;;;0.00;0.00;;;;;;;2.79;76.54;100632.41;15600822;28;20037;-55
2023/11/17 02:02:42;;;;;;;0.00;0.00;;;;;;;2.72;76.46;100640.19;15603725;28;20119;-54
2023/11/17 02:10:28;;;;;;;0.00;0.00;;;;;;;2.96;75.84;100633.28;15600566;28;20069;-55
2023/11/17 02:18:10;;;;;;;0.47;0.40;;;;;;;3.27;74.75;100633.50;15598244;28;20512;-52
2023/11/17 02:25:56;;;;;;;0.00;0.00;;;;;;;2.81;76.27;100633.94;15590118;28;20041;-53
2023/11/17 02:33:32;;;;;;;0.00;0.00;;;;;;;3.04;75.81;100641.25;15597688;28;20038;-51
2023/11/17 02:41:08;;;;;;;0.00;0.00;;;;;;;3.22;75.20;100660.50;15596196;28;20380;-53
2023/11/17 02:48:45;;;;;;;0.10;0.10;;;;;;;3.04;75.76;100657.16;15613898;28;20053;-51
2023/11/17 02:56:22;;;;;;;0.00;0.00;;;;;;;3.05;75.57;100659.66;15594767;28;20038;-53
2023/11/17 03:03:58;;;;;;;0.98;0.57;;;;;;;2.80;76.26;100661.44;15587054;28;20156;-52
2023/11/17 03:11:32;;;;;;;0.00;0.00;;;;;;;3.30;74.59;100663.16;15585867;28;20058;-50
2023/11/17 03:19:10;;;;;;;0.47;0.47;;;;;;;3.09;74.75;100668.13;15593352;28;20128;-49
2023/11/17 03:26:47;;;;;;;0.38;0.38;;;;;;;3.19;75.02;100678.56;15593303;28;20121;-49
2023/11/17 03:34:24;;;;;;;0.65;0.65;;;;;;;2.68;76.85;100683.91;15596674;28;20041;-54
2023/11/17 03:41:59;;;;;;;0.00;0.00;;;;;;;2.76;77.33;100691.91;15595387;28;20057;-49
2023/11/17 03:49:35;;;;;;;0.00;0.00;;;;;;;2.81;77.68;100680.81;15576493;28;20081;-48
2023/11/17 03:57:10;;;;;;;0.68;0.43;;;;;;;2.76;77.92;100685.75;15592741;28;20037;-51
2023/11/17 04:04:47;;;;;;;0.00;0.00;;;;;;;2.98;77.13;100698.41;15610311;28;20129;-51
2023/11/17 04:12:25;;;;;;;0.00;0.00;;;;;;;2.89;77.94;100702.03;15602995;28;20049;-50
2023/11/17 04:19:59;;;;;;;;;;;;;;;3.05;77.12;100717.16;15584241;28;20087;-49
2023/11/17 04:27:35;;;;;;;0.00;0.00;;;;;;;3.06;76.58;100711.69;15591707;28;19932;-50
2023/11/17 04:35:12;;;;;;;0.10;0.10;;;;;;;3.27;76.77;100727.16;15591729;28;20040;-49
2023/11/17 04:42:46;;;;;;;0.25;0.25;;;;;;;3.15;76.34;100728.44;15601092;28;20037;-51
2023/11/17 04:50:21;;;;;;;0.00;0.00;;;;;;;3.18;76.60;100732.63;15607453;28;20384;-51
2023/11/17 04:57:55;;;;;;;0.45;0.45;;;;;;;3.04;76.90;100734.91;15607696;28;20048;-50
2023/11/17 05:05:31;;;;;;;0.30;0.30;;;;;;;2.79;78.32;100754.34;15596708;28;20496;-51
2023/11/17 05:13:05;;;;;;;0.08;0.08;;;;;;;3.23;76.74;100755.00;15612108;28;20120;-50
2023/11/17 05:20:42;;;;;;;0.00;0.00;;;;;;;3.21;76.76;100762.28;15618960;28;20045;-49
2023/11/17 05:28:17;;;;;;;0.30;0.30;;;;;;;2.98;77.66;100769.16;15618072;28;20041;-48
2023/11/17 05:35:52;;;;;;;0.08;0.08;;;;;;;3.18;76.88;100777.69;15601304;28;20069;-52
2023/11/17 05:43:27;;;;;;;0.00;0.00;;;;;;;3.18;76.78;100773.22;15600177;28;20044;-51
2023/11/17 05:51:05;;;;;;;;;;;;;;;3.02;77.54;100787.25;15610895;28;20046;-52
2023/11/17 05:58:41;;;;;;;0.00;0.00;;;;;;;3.12;77.52;100794.22;15609919;28;19999;-47
2023/11/17 06:06:17;;;;;;;0.32;0.20;;;;;;;2.96;77.53;100808.28;15597589;28;20099;-48
2023/11/17 06:13:50;;;;;;;0.00;0.00;;;;;;;3.04;78.08;100808.31;15610111;28;20103;-51
2023/11/17 06:21:27;;;;;;;0.15;0.15;;;;;;;3.22;77.08;100811.69;15615396;28;20092;-51
2023/11/17 06:29:03;;;;;;;0.00;0.00;;;;;;;3.19;77.80;100814.66;15598952;28;20158;-49
2023/11/17 06:36:41;;;;;;;0.08;0.08;;;;;;;3.45;76.57;100813.72;15615106;28;20041;-52
2023/11/17 06:44:15;;;;;;;0.57;0.45;;;;;;;3.16;77.39;100835.38;15613575;28;20123;-49
2023/11/17 06:51:51;;;;;;;0.08;0.08;;;;;;;3.21;77.53;100838.38;15589933;28;20041;-50
2023/11/17 06:59:35;;;;;;;0.08;0.08;;;;;;;3.20;77.81;100839.38;15615256;28;20045;-53
2023/11/17 07:07:15;;;;;;;0.38;0.38;;;;;;;3.35;77.73;100848.34;15610568;28;20045;-50
2023/11/17 07:14:51;;;;;;;0.00;0.00;;;;;;;3.43;77.98;100855.53;15603967;28;20504;-52
2023/11/17 07:22:28;;;;;;;0.20;0.20;;;;;;;3.53;77.12;100861.53;15592124;28;20045;-50
2023/11/17 07:30:02;;;;;;;0.13;0.13;;;;;;;3.57;76.92;100874.31;15609964;23;20403;-52
2023/11/17 07:37:40;;;;;;;0.00;0.00;;;;;;;3.47;77.23;100880.75;15597254;28;20128;-54
2023/11/17 07:45:13;;;;;;;0.00;0.00;;;;;;;3.62;76.48;100883.63;15622308;28;20394;-54
2023/11/17 07:52:49;;;;;;;0.10;0.10;;;;;;;3.65;76.67;100897.41;15614239;28;20103;-53
2023/11/17 08:00:28;;;;;;;0.00;0.00;;;;;;;3.90;75.35;100905.44;15610738;28;20041;-55
2023/11/17 08:08:03;;;;;;;0.00;0.00;;;;;;;3.49;78.70;100921.22;15590873;28;20530;-51
2023/11/17 08:15:39;;;;;;;0.00;0.00;;;;;;;3.54;79.44;100929.53;15606014;28;20452;-53
2023/11/17 08:23:14;;;;;;;0.00;0.00;;;;;;;3.40;80.38;100928.31;15612939;28;20041;-53
2023/11/17 08:30:47;;;;;;;0.08;0.08;;;;;;;3.58;80.06;100933.53;15606040;28;20073;-55
2023/11/17 08:38:26;;;;;;;0.00;0.00;;;;;;;3.41;81.11;100947.75;15593383;28;20038;-56
2023/11/17 08:46:00;;;;;;;0.00;0.00;;;;;;;3.63;81.21;100955.09;15608196;28;20049;-53
2023/11/17 08:53:34;;;;;;;0.00;0.00;;;;;;;3.64;80.94;100969.22;15602759;28;20124;-54
2023/11/17 09:01:08;;;;;;;0.00;0.00;;;;;;;3.90;79.43;100975.28;15619795;28;20148;-52
2023/11/17 09:08:43;;;;;;;0.00;0.00;;;;;;;4.07;77.94;100986.81;15606330;28;20042;-56
2023/11/17 09:16:17;;;;;;;0.10;0.10;;;;;;;3.81;78.31;101011.59;15620767;28;20033;-53
2023/11/17 09:23:52;;;;;;;0.00;0.00;;;;;;;3.67;78.97;101004.25;15624064;28;20479;-54
2023/11/17 09:31:28;;;;;;;0.00;0.00;;;;;;;3.89;78.51;101010.00;15623103;28;20061;-54
2023/11/17 09:39:08;;;;;;;0.17;0.17;;;;;;;3.88;78.29;100992.41;15622499;28;20029;-54
2023/11/17 09:46:51;;;;;;;0.60;0.10;;;;;;;4.32;77.13;101000.97;15627210;28;20088;-53
2023/11/17 09:54:30;;;;;;;;;;;;;;;4.21;77.45;101012.75;15621741;28;20037;-52
2023/11/17 10:02:10;;;;;;;0.00;0.00;;;;;;;3.94;78.09;101015.66;15604629;28;19998;-53
2023/11/17 10:09:48;;;;;;;0.00;0.00;;;;;;;4.44;76.47;101018.28;15620940;28;20037;-53
2023/11/17 10:17:24;;;;;;;0.00;0.00;;;;;;;4.26;76.08;101020.25;15618678;28;20075;-54
2023/11/17 10:25:02;;;;;;;0.00;0.00;;;;;;;4.54;75.71;101021.63;15632009;28;20403;-53
2023/11/17 10:32:43;;;;;;;0.00;0.00;;;;;;;4.42;76.46;101035.38;15621068;28;20072;-55
2023/11/17 10:40:28;;;;;;;0.00;0.00;;;;;;;5.03;74.17;101034.09;15622731;28;20052;-53
2023/11/17 10:48:07;;;;;;;0.20;0.20;;;;;;;4.89;73.84;101022.31;15628139;28;20124;-54
2023/11/17 10:55:42;;;;;;;0.70;0.52;;;;;;;4.67;73.90;101031.78;15628100;28;20427;-57
2023/11/17 11:03:18;;;;;;;0.00;0.00;;;;;;;4.67;74.17;101036.28;15620323;28;20304;-53
2023/11/17 11:10:55;;;;;;;0.00;0.00;;;;;;;4.62;74.39;101034.09;15638142;28;20042;-56
2023/11/17 11:18:32;;;;;;;0.35;0.35;;;;;;;4.77;74.00;101044.91;15627478;28;20049;-53
2023/11/17 11:26:08;;;;;;;0.22;0.22;;;;;;;4.77;73.45;101052.91;15621404;28;20041;-53
2023/11/17 11:33:42;;;;;;;0.00;0.00;;;;;;;5.02;73.50;101070.53;15614849;28;20038;-53
2023/11/17 11:41:22;;;;;;;0.00;0.00;;;;;;;4.79;74.23;101064.19;15580747;28;20045;-55
2023/11/17 11:48:59;;;;;;;0.08;0.08;;;;;;;4.71;74.01;101070.34;15618466;28;20073;-54
2023/11/17 11:56:42;;;;;;;0.00;0.00;;;;;;;4.81;74.07;101068.34;15595079;28;20084;-53
2023/11/17 12:04:20;;;;;;;0.00;0.00;;;;;;;5.10;73.49;101083.84;15596092;28;20432;-54
2023/11/17 12:11:57;;;;;;;0.00;0.00;;;;;;;4.94;74.50;101083.81;15611786;28;20120;-54
2023/11/17 12:19:32;;;;;;;0.00;0.00;;;;;;;4.83;74.25;101092.13;15595375;28;20045;-54
2023/11/17 12:27:07;;;;;;;0.00;0.00;;;;;;;4.93;74.26;101084.81;15601371;28;20045;-53
2023/11/17 12:34:44;;;;;;;1.00;0.45;;;;;;;5.01;73.34;101092.81;15577489;28;20132;-53
2023/11/17 12:42:20;;;;;;;0.10;0.10;;;;;;;5.25;72.76;101091.97;15616807;28;20043;-53
2023/11/17 12:49:59;;;;;;;0.00;0.00;;;;;;;4.71;74.10;101112.03;15596445;28;20127;-55
2023/11/17 12:57:34;;;;;;;0.00;0.00;;;;;;;4.81;73.94;101110.09;15594385;28;20048;-54
2023/11/17 13:05:10;;;;;;;0.20;0.20;;;;;;;5.07;72.80;101113.41;15613194;28;20054;-51
2023/11/17 13:12:47;;;;;;;0.00;0.00;;;;;;;4.86;73.54;101113.09;15610115;28;20038;-54
2023/11/17 13:20:23;;;;;;;0.00;0.00;;;;;;;5.33;72.96;101136.41;15607864;28;20041;-55
2023/11/17 13:27:59;;;;;;;0.15;0.15;;;;;;;5.22;72.66;101128.72;15619422;28;20038;-53
2023/11/17 13:35:33;;;;;;;0.43;0.35;;;;;;;5.30;72.79;101153.53;15619347;28;20061;-50
2023/11/17 13:43:10;;;;;;;0.00;0.00;;;;;;;5.32;72.70;101151.53;15624318;28;20129;-55
2023/11/17 13:50:51;;;;;;;0.00;0.00;;;;;;;5.27;72.46;101155.69;15618597;28;20492;-53
2023/11/17 13:58:26;;;;;;;0.00;0.00;;;;;;;5.08;72.96;101170.97;15618764;28;20539;-48
2023/11/17 14:06:00;;;;;;;0.00;0.00;;;;;;;5.20;73.16;101187.44;15599830;28;20086;-52
2023/11/17 14:13:36;;;;;;;;;;;;;;;5.37;73.29;101190.97;15586159;28;20093;-53
2023/11/17 14:21:11;;;;;;;0.22;0.22;;;;;;;5.19;73.90;101204.41;15620227;28;19933;-49
2023/11/17 14:28:46;;;;;;;0.17;0.17;;;;;;;5.10;73.72;101216.88;15628265;28;20115;-54
2023/11/17 14:36:22;;;;;;;0.00;0.00;;;;;;;5.14;73.99;101230.69;15628994;28;20080;-56
2023/11/17 14:44:03;;;;;;;0.00;0.00;;;;;;;5.23;74.29;101231.53;15618096;28;20042;-55
2023/11/17 14:51:37;;;;;;;0.60;0.45;;;;;;;5.26;74.17;101240.00;15600113;28;20057;-51
2023/11/17 14:59:12;;;;;;;0.00;0.00;;;;;;;5.23;74.97;101237.69;15619895;28;20037;-52
2023/11/17 15:06:53;;;;;;;1.00;0.60;;;;;;;5.25;74.28;101240.19;15619300;28;20076;-52
2023/11/17 15:14:30;;;;;;;0.00;0.00;;;;;;;5.32;74.34;101251.84;15602402;28;20042;-51
2023/11/17 15:22:05;;;;;;;0.93;0.30;;;;;;;5.31;74.10;101256.31;15618785;28;20052;-50
2023/11/17 15:29:46;;;;;;;0.63;0.40;;;;;;;4.95;75.64;101277.03;15600144;28;20036;-54
2023/11/17 15:37:23;;;;;;;0.52;0.40;;;;;;;4.76;74.11;101184.19;15615314;28;20048;-52
2023/11/17 15:45:01;;;;;;;0.00;0.00;;;;;;;5.57;73.49;101285.50;15620593;28;20092;-50
2023/11/17 15:52:35;;;;;;;0.00;0.00;;;;;;;5.32;74.15;101283.81;15614675;28;20073;-53
2023/11/17 16:00:23;;;;;;;0.00;0.00;;;;;;;5.15;74.22;101296.22;15594639;28;20033;-51
2023/11/17 16:07:59;;;;;;;0.00;0.00;;;;;;;5.06;74.73;101294.50;15614127;28;20071;-53
2023/11/17 16:15:35;;;;;;;0.08;0.08;;;;;;;5.30;73.79;101299.09;15608730;28;20476;-52
2023/11/17 16:23:14;;;;;;;0.00;0.00;;;;;;;5.24;74.07;101326.34;15590929;28;20042;-52
2023/11/17 16:30:49;;;;;;;0.00;0.00;;;;;;;5.40;74.04;101344.19;15610791;28;20076;-52
2023/11/17 16:38:23;;;;;;;0.00;0.00;;;;;;;5.75;72.31;101348.47;15611581;28;20095;-56
2023/11/17 16:46:00;;;;;;;0.10;0.10;;;;;;;5.43;72.58;101358.03;15617994;28;20111;-55
2023/11/17 16:53:35;;;;;;;0.00;0.00;;;;;;;5.35;73.15;101363.31;15612069;28;20136;-54
2023/11/17 17:01:10;;;;;;;0.00;0.00;;;;;;;5.25;73.98;101387.41;15618065;28;20081;-55
2023/11/17 17:08:43;;;;;;;0.00;0.00;;;;;;;4.83;76.85;101397.97;15606003;28;20049;-55
2023/11/17 17:16:20;;;;;;;0.00;0.00;;;;;;;4.90;76.56;101400.88;15623316;28;20404;-50
2023/11/17 17:23:53;;;;;;;0.00;0.00;;;;;;;4.62;77.66;101408.97;15605752;28;20056;-53
2023/11/17 17:31:28;;;;;;;0.00;0.00;;;;;;;4.78;77.24;101421.56;15622931;28;20330;-51
2023/11/17 17:39:04;;;;;;;0.00;0.00;;;;;;;4.63;78.05;101421.28;15621633;28;20431;-50
2023/11/17 17:46:40;;;;;;;1.00;0.45;;;;;;;4.86;76.96;101435.75;15626365;28;20120;-50
2023/11/17 17:54:14;;;;;;;0.00;0.00;;;;;;;4.53;78.97;101444.47;15605648;28;20436;-54
2023/11/17 18:01:48;;;;;;;0.00;0.00;;;;;;;4.48;79.99;101460.88;15625663;28;20120;-49
2023/11/17 18:09:26;;;;;;;0.10;0.10;;;;;;;4.60;79.65;101466.78;15604561;28;20055;-52
2023/11/17 18:17:01;;;;;;;0.35;0.32;;;;;;;4.58;79.52;101466.94;15624223;28;20118;-52
2023/11/17 18:24:36;;;;;;;0.00;0.00;;;;;;;4.77;79.77;101481.06;15621855;28;20052;-50
2023/11/17 18:32:14;;;;;;;0.10;0.10;;;;;;;4.52;80.34;101486.19;15604274;28;20116;-49
2023/11/17 18:39:48;;;;;;;0.00;0.00;;;;;;;4.71;80.40;101498.47;15618166;28;20045;-49
2023/11/17 18:47:24;;;;;;;0.00;0.00;;;;;;;4.92;79.32;101513.25;15623804;28;20413;-52
2023/11/17 18:55:02;;;;;;;0.00;0.00;;;;;;;5.07;77.97;101509.88;15614909;28;20742;-52
2023/11/17 19:02:40;;;;;;;0.00;0.00;;;;;;;4.78;78.90;101509.31;15614872;28;20068;-49
2023/11/17 19:10:15;;;;;;;0.05;0.05;;;;;;;4.97;78.36;101525.09;15614506;28;20055;-55
2023/11/17 19:17:50;;;;;;;0.00;0.00;;;;;;;4.67;78.86;101536.16;15613272;28;20068;-52
2023/11/17 19:25:37;;;;;;;0.93;0.93;;;;;;;3.76;77.13;101313.09;15614962;28;20048;-49
2023/11/17 19:33:12;;;;;;;0.00;0.00;;;;;;;4.80;78.81;101539.25;15418884;28;20171;-49
2023/11/17 19:40:45;;;;;;;0.00;0.00;;;;;;;4.88;78.16;101549.97;15370186;28;20468;-50
2023/11/17 19:48:21;;;;;;;0.40;0.40;;;;;;;4.54;79.02;101528.53;15379610;28;20073;-50
2023/11/17 19:55:57;;;;;;;0.00;0.00;;;;;;;4.72;79.70;101557.81;15394701;28;20061;-48
2023/11/17 20:03:32;;;;;;;0.80;0.80;;;;;;;4.50;81.18;101565.22;15382257;28;20457;-50
2023/11/17 20:11:07;;;;;;;0.80;0.63;;;;;;;4.75;79.30;101570.78;15408825;28;20413;-52
2023/11/17 20:18:43;;;;;;;0.00;0.00;;;;;;;4.68;81.36;101583.03;15405066;28;20054;-48
2023/11/17 20:26:17;;;;;;;0.38;0.20;;;;;;;4.85;79.77;101595.50;15374466;28;20044;-48
2023/11/17 20:33:55;;;;;;;0.00;0.00;;;;;;;4.75;79.86;101594.72;15371469;28;20071;-50
2023/11/17 20:41:29;;;;;;;1.25;0.95;;;;;;;4.80;80.36;101613.72;15375580;28;20046;-51
2023/11/17 20:49:05;;;;;;;0.10;0.10;;;;;;;4.73;80.54;101617.97;15376942;28;20039;-50
2023/11/17 20:56:38;;;;;;;0.10;0.10;;;;;;;4.68;79.42;101623.75;15377806;28;20669;-49
2023/11/17 21:04:14;;;;;;;0.13;0.13;;;;;;;4.45;80.04;101625.16;15353109;28;20106;-49
2023/11/17 21:11:48;;;;;;;0.00;0.00;;;;;;;4.68;78.48;101623.75;15376732;28;20054;-49
2023/11/17 21:19:23;;;;;;;0.00;0.00;;;;;;;4.70;78.74;101636.88;15376504;28;20044;-48
2023/11/17 21:26:56;;;;;;;0.20;0.20;;;;;;;4.41;78.06;101597.19;15368489;28;20043;-52
2023/11/17 21:34:35;;;;;;;1.15;0.28;;;;;;;4.76;77.60;101641.63;15377249;28;20074;-48
2023/11/17 21:42:08;;;;;;;0.00;0.00;;;;;;;4.45;78.87;101638.44;15377061;28;20118;-50
2023/11/17 21:49:44;;;;;;;0.05;0.05;;;;;;;4.23;79.13;101659.09;15379884;28;20106;-50
2023/11/17 21:57:21;;;;;;;1.02;0.63;;;;;;;4.52;78.85;101653.66;15379897;28;20516;-50
2023/11/17 22:04:59;;;;;;;0.00;0.00;;;;;;;4.46;80.00;101659.53;15368976;28;20047;-48
2023/11/17 22:12:34;;;;;;;0.47;0.20;;;;;;;4.48;79.99;101651.44;15369617;28;20051;-49
2023/11/17 22:20:10;;;;;;;;;;;;;;;4.49;80.63;101669.91;15377991;28;20059;-51
2023/11/17 22:27:44;;;;;;;0.00;0.00;;;;;;;4.53;79.91;101665.13;15367600;28;19923;-53
2023/11/17 22:35:22;;;;;;;0.40;0.40;;;;;;;4.78;78.67;101666.22;15371395;28;20035;-51
2023/11/17 22:42:57;;;;;;;0.00;0.00;;;;;;;4.47;80.22;101669.19;15371788;28;20122;-52
2023/11/17 22:50:40;;;;;;;0.47;0.47;;;;;;;4.73;80.18;101681.81;15331083;28;20047;-52
2023/11/17 22:58:15;;;;;;;0.10;0.10;;;;;;;4.70;80.18;101690.91;15330939;28;20588;-55
2023/11/17 23:05:50;;;;;;;0.13;0.13;;;;;;;4.50;80.40;101708.78;15350345;28;20099;-51
2023/11/17 23:13:23;;;;;;;0.00;0.00;;;;;;;4.75;80.29;101709.91;15365104;28;20234;-51
2023/11/17 23:20:58;;;;;;;0.00;0.00;;;;;;;4.00;80.29;101647.16;15364842;28;20043;-51
2023/11/17 23:28:33;;;;;;;0.00;0.00;;;;;;;4.36;80.20;101727.88;15334518;28;20059;-53
2023/11/17 23:36:12;;;;;;;0.00;0.00;;;;;;;4.64;79.62;101734.06;15341315;28;20693;-49
2023/11/17 23:43:46;;;;;;;0.80;0.55;;;;;;;4.68;79.31;101745.25;15364200;28;20066;-54
2023/11/17 23:51:22;;;;;;;0.10;0.10;;;;;;;4.61;79.99;101750.28;15339916;28;20122;-52
2023/11/17 23:58:56;;;;;;;0.25;0.25;;;;;;;4.60;80.11;101773.38;15358400;28;20047;-50
